sensor_id;sensor_type;location;lat;lon;timestamp;pressure;altitude;pressure_sealevel;temperature;humidity
80798;BME280;70202;52.238;10.680;2023-05-23T00:00:32;99854.28;;;19.10;59.71
80798;BME280;70202;52.238;10.680;2023-05-23T00:01:32;99850.78;;;19.08;59.83
80798;BME280;70202;52.238;10.680;2023-05-23T00:02:36;99853.56;;;19.08;59.97
80798;BME280;70202;52.238;10.680;2023-05-23T00:03:36;99860.19;;;19.05;59.99
80798;BME280;70202;52.238;10.680;2023-05-23T00:04:37;99857.44;;;19.05;59.96
80798;BME280;70202;52.238;10.680;2023-05-23T00:05:37;99847.50;;;19.03;59.83
80798;BME280;70202;52.238;10.680;2023-05-23T00:06:38;99837.72;;;18.98;59.91
80798;BME280;70202;52.238;10.680;2023-05-23T00:07:38;99853.94;;;19.03;60.04
80798;BME280;70202;52.238;10.680;2023-05-23T00:08:38;99840.38;;;19.00;59.91
80798;BME280;70202;52.238;10.680;2023-05-23T00:09:39;99842.25;;;19.00;59.70
80798;BME280;70202;52.238;10.680;2023-05-23T00:10:39;99839.50;;;19.00;59.92
80798;BME280;70202;52.238;10.680;2023-05-23T00:11:40;99843.63;;;19.05;60.05
80798;BME280;70202;52.238;10.680;2023-05-23T00:12:44;99835.84;;;18.99;59.94
80798;BME280;70202;52.238;10.680;2023-05-23T00:13:47;99842.88;;;19.03;60.04
80798;BME280;70202;52.238;10.680;2023-05-23T00:14:47;99843.88;;;19.02;59.90
80798;BME280;70202;52.238;10.680;2023-05-23T00:15:48;99839.34;;;19.01;59.98
80798;BME280;70202;52.238;10.680;2023-05-23T00:16:48;99831.69;;;18.93;60.03
80798;BME280;70202;52.238;10.680;2023-05-23T00:17:48;99840.59;;;18.97;59.92
80798;BME280;70202;52.238;10.680;2023-05-23T00:18:49;99831.97;;;18.90;60.20
80798;BME280;70202;52.238;10.680;2023-05-23T00:19:50;99841.63;;;18.96;60.12
80798;BME280;70202;52.238;10.680;2023-05-23T00:20:51;99847.00;;;18.86;59.84
80798;BME280;70202;52.238;10.680;2023-05-23T00:21:52;99840.84;;;18.94;60.08
80798;BME280;70202;52.238;10.680;2023-05-23T00:22:55;99838.84;;;18.85;60.07
80798;BME280;70202;52.238;10.680;2023-05-23T00:23:57;99840.59;;;18.86;60.17
80798;BME280;70202;52.238;10.680;2023-05-23T00:24:58;99838.84;;;18.85;60.21
80798;BME280;70202;52.238;10.680;2023-05-23T00:26:01;99838.97;;;18.83;60.08
80798;BME280;70202;52.238;10.680;2023-05-23T00:27:01;99841.09;;;18.80;60.27
80798;BME280;70202;52.238;10.680;2023-05-23T00:28:03;99845.22;;;18.85;60.25
80798;BME280;70202;52.238;10.680;2023-05-23T00:29:04;99846.25;;;18.84;59.78
80798;BME280;70202;52.238;10.680;2023-05-23T00:30:04;99824.03;;;18.75;60.22
80798;BME280;70202;52.238;10.680;2023-05-23T00:31:05;99840.09;;;18.81;60.64
80798;BME280;70202;52.238;10.680;2023-05-23T00:32:05;99837.31;;;18.81;60.28
80798;BME280;70202;52.238;10.680;2023-05-23T00:33:06;99832.41;;;18.73;60.38
80798;BME280;70202;52.238;10.680;2023-05-23T00:34:06;99832.56;;;18.71;60.19
80798;BME280;70202;52.238;10.680;2023-05-23T00:35:07;99829.66;;;18.73;60.35
80798;BME280;70202;52.238;10.680;2023-05-23T00:36:07;99835.19;;;18.73;60.38
80798;BME280;70202;52.238;10.680;2023-05-23T00:37:08;99821.13;;;18.65;60.46
80798;BME280;70202;52.238;10.680;2023-05-23T00:38:08;99834.56;;;18.69;60.19
80798;BME280;70202;52.238;10.680;2023-05-23T00:39:10;99835.50;;;18.68;60.31
80798;BME280;70202;52.238;10.680;2023-05-23T00:40:18;99829.50;;;18.63;60.48
80798;BME280;70202;52.238;10.680;2023-05-23T00:41:18;99835.88;;;18.64;60.43
80798;BME280;70202;52.238;10.680;2023-05-23T00:42:20;99833.63;;;18.58;60.44
80798;BME280;70202;52.238;10.680;2023-05-23T00:43:20;99836.63;;;18.55;60.55
80798;BME280;70202;52.238;10.680;2023-05-23T00:44:21;99834.22;;;18.50;60.53
80798;BME280;70202;52.238;10.680;2023-05-23T00:45:22;99838.63;;;18.53;60.50
80798;BME280;70202;52.238;10.680;2023-05-23T00:46:22;99837.13;;;18.48;60.62
80798;BME280;70202;52.238;10.680;2023-05-23T00:47:23;99839.75;;;18.50;60.70
80798;BME280;70202;52.238;10.680;2023-05-23T00:48:24;99849.31;;;18.57;60.63
80798;BME280;70202;52.238;10.680;2023-05-23T00:49:25;99847.66;;;18.55;60.56
80798;BME280;70202;52.238;10.680;2023-05-23T00:50:27;99857.97;;;18.64;60.65
80798;BME280;70202;52.238;10.680;2023-05-23T00:51:31;99849.03;;;18.60;60.96
80798;BME280;70202;52.238;10.680;2023-05-23T00:52:32;99838.50;;;18.54;60.61
80798;BME280;70202;52.238;10.680;2023-05-23T00:53:33;99844.28;;;18.62;60.48
80798;BME280;70202;52.238;10.680;2023-05-23T00:54:35;99855.97;;;18.66;60.49
80798;BME280;70202;52.238;10.680;2023-05-23T00:55:35;99851.06;;;18.58;60.76
80798;BME280;70202;52.238;10.680;2023-05-23T00:56:37;99864.47;;;18.63;60.41
80798;BME280;70202;52.238;10.680;2023-05-23T00:57:38;99867.00;;;18.66;60.73
80798;BME280;70202;52.238;10.680;2023-05-23T00:58:43;99860.84;;;18.62;60.74
80798;BME280;70202;52.238;10.680;2023-05-23T00:59:44;99859.84;;;18.63;60.84
80798;BME280;70202;52.238;10.680;2023-05-23T01:00:46;99856.44;;;18.60;60.73
80798;BME280;70202;52.238;10.680;2023-05-23T01:01:49;99865.88;;;18.68;60.86
80798;BME280;70202;52.238;10.680;2023-05-23T01:02:50;99864.91;;;18.69;60.76
80798;BME280;70202;52.238;10.680;2023-05-23T01:03:51;99867.53;;;18.71;60.93
80798;BME280;70202;52.238;10.680;2023-05-23T01:04:51;99853.31;;;18.64;60.92
80798;BME280;70202;52.238;10.680;2023-05-23T01:05:54;99863.91;;;18.70;61.10
80798;BME280;70202;52.238;10.680;2023-05-23T01:06:55;99869.19;;;18.73;60.68
80798;BME280;70202;52.238;10.680;2023-05-23T01:07:56;99871.03;;;18.73;61.04
80798;BME280;70202;52.238;10.680;2023-05-23T01:08:56;99855.09;;;18.65;61.06
80798;BME280;70202;52.238;10.680;2023-05-23T01:10:01;99858.59;;;18.67;60.83
80798;BME280;70202;52.238;10.680;2023-05-23T01:11:06;99874.81;;;18.72;60.97
80798;BME280;70202;52.238;10.680;2023-05-23T01:13:40;99843.66;;;18.59;60.98
80798;BME280;70202;52.238;10.680;2023-05-23T01:15:00;99872.94;;;18.72;60.84
80798;BME280;70202;52.238;10.680;2023-05-23T01:16:11;99869.19;;;18.73;60.97
80798;BME280;70202;52.238;10.680;2023-05-23T01:20:40;99859.59;;;18.66;61.08
80798;BME280;70202;52.238;10.680;2023-05-23T01:21:52;99857.84;;;18.65;60.91
80798;BME280;70202;52.238;10.680;2023-05-23T01:25:47;99876.91;;;18.68;61.04
80798;BME280;70202;52.238;10.680;2023-05-23T01:27:00;99858.47;;;18.58;61.12
80798;BME280;70202;52.238;10.680;2023-05-23T01:28:07;99871.66;;;18.65;61.18
80798;BME280;70202;52.238;10.680;2023-05-23T01:29:14;99857.81;;;18.54;61.20
80798;BME280;70202;52.238;10.680;2023-05-23T01:30:18;99871.88;;;18.62;61.27
80798;BME280;70202;52.238;10.680;2023-05-23T01:31:21;99849.28;;;18.46;61.15
80798;BME280;70202;52.238;10.680;2023-05-23T01:32:24;99874.88;;;18.59;61.42
80798;BME280;70202;52.238;10.680;2023-05-23T01:33:27;99843.88;;;18.44;61.34
80798;BME280;70202;52.238;10.680;2023-05-23T01:34:29;99863.56;;;18.51;61.58
80798;BME280;70202;52.238;10.680;2023-05-23T01:35:30;99865.88;;;18.57;61.49
80798;BME280;70202;52.238;10.680;2023-05-23T01:36:32;99862.22;;;18.57;61.54
80798;BME280;70202;52.238;10.680;2023-05-23T01:37:34;99858.06;;;18.51;61.63
80798;BME280;70202;52.238;10.680;2023-05-23T01:38:34;99877.88;;;18.56;61.62
80798;BME280;70202;52.238;10.680;2023-05-23T01:39:35;99868.34;;;18.49;61.66
80798;BME280;70202;52.238;10.680;2023-05-23T01:40:36;99862.31;;;18.44;61.64
80798;BME280;70202;52.238;10.680;2023-05-23T01:41:37;99858.78;;;18.42;61.67
80798;BME280;70202;52.238;10.680;2023-05-23T01:42:38;99875.84;;;18.47;61.85
80798;BME280;70202;52.238;10.680;2023-05-23T01:43:38;99859.16;;;18.37;61.89
80798;BME280;70202;52.238;10.680;2023-05-23T01:44:39;99888.53;;;18.49;62.06
80798;BME280;70202;52.238;10.680;2023-05-23T01:45:40;99873.56;;;18.41;61.96
80798;BME280;70202;52.238;10.680;2023-05-23T01:46:40;99875.34;;;18.42;61.97
80798;BME280;70202;52.238;10.680;2023-05-23T01:47:43;99850.47;;;18.31;62.14
80798;BME280;70202;52.238;10.680;2023-05-23T01:48:45;99858.28;;;18.37;62.11
80798;BME280;70202;52.238;10.680;2023-05-23T01:49:46;99878.88;;;18.44;61.92
80798;BME280;70202;52.238;10.680;2023-05-23T01:50:47;99875.09;;;18.45;62.07
80798;BME280;70202;52.238;10.680;2023-05-23T01:51:48;99876.84;;;18.46;62.08
80798;BME280;70202;52.238;10.680;2023-05-23T01:52:49;99867.94;;;18.42;62.17
80798;BME280;70202;52.238;10.680;2023-05-23T01:53:50;99868.81;;;18.43;61.93
80798;BME280;70202;52.238;10.680;2023-05-23T01:54:51;99867.19;;;18.40;62.14
80798;BME280;70202;52.238;10.680;2023-05-23T01:55:52;99872.81;;;18.39;62.16
80798;BME280;70202;52.238;10.680;2023-05-23T01:56:53;99868.06;;;18.41;62.22
80798;BME280;70202;52.238;10.680;2023-05-23T01:57:55;99872.44;;;18.43;62.27
80798;BME280;70202;52.238;10.680;2023-05-23T01:58:56;99873.09;;;18.47;62.25
80798;BME280;70202;52.238;10.680;2023-05-23T01:59:57;99870.94;;;18.39;62.39
80798;BME280;70202;52.238;10.680;2023-05-23T02:00:57;99862.91;;;18.36;62.41
80798;BME280;70202;52.238;10.680;2023-05-23T02:01:58;99852.69;;;18.26;62.38
80798;BME280;70202;52.238;10.680;2023-05-23T02:02:58;99869.53;;;18.34;62.28
80798;BME280;70202;52.238;10.680;2023-05-23T02:03:59;99873.44;;;18.31;62.49
80798;BME280;70202;52.238;10.680;2023-05-23T02:04:59;99884.84;;;18.38;62.31
80798;BME280;70202;52.238;10.680;2023-05-23T02:06:00;99873.16;;;18.34;62.35
80798;BME280;70202;52.238;10.680;2023-05-23T02:07:00;99875.28;;;18.31;62.36
80798;BME280;70202;52.238;10.680;2023-05-23T02:08:00;99866.41;;;18.27;62.22
80798;BME280;70202;52.238;10.680;2023-05-23T02:09:01;99867.00;;;18.31;62.44
80798;BME280;70202;52.238;10.680;2023-05-23T02:10:02;99873.16;;;18.34;62.56
80798;BME280;70202;52.238;10.680;2023-05-23T02:11:03;99869.75;;;18.31;62.34
80798;BME280;70202;52.238;10.680;2023-05-23T02:12:04;99861.84;;;18.26;62.47
80798;BME280;70202;52.238;10.680;2023-05-23T02:13:04;99854.31;;;18.17;62.51
80798;BME280;70202;52.238;10.680;2023-05-23T02:14:06;99855.72;;;18.22;62.57
80798;BME280;70202;52.238;10.680;2023-05-23T02:15:06;99872.13;;;18.24;62.35
80798;BME280;70202;52.238;10.680;2023-05-23T02:16:07;99864.09;;;18.21;62.68
80798;BME280;70202;52.238;10.680;2023-05-23T02:17:08;99862.56;;;18.17;62.30
80798;BME280;70202;52.238;10.680;2023-05-23T02:18:11;99855.53;;;18.13;62.53
80798;BME280;70202;52.238;10.680;2023-05-23T02:19:12;99863.94;;;18.11;62.43
80798;BME280;70202;52.238;10.680;2023-05-23T02:20:12;99864.94;;;18.10;62.42
80798;BME280;70202;52.238;10.680;2023-05-23T02:21:13;99869.44;;;18.11;62.82
80798;BME280;70202;52.238;10.680;2023-05-23T02:22:14;99875.72;;;18.13;62.50
80798;BME280;70202;52.238;10.680;2023-05-23T02:23:14;99864.94;;;18.10;62.73
80798;BME280;70202;52.238;10.680;2023-05-23T02:24:14;99870.69;;;18.07;62.54
80798;BME280;70202;52.238;10.680;2023-05-23T02:25:15;99839.56;;;17.94;62.62
80798;BME280;70202;52.238;10.680;2023-05-23T02:26:15;99863.28;;;18.08;62.69
80798;BME280;70202;52.238;10.680;2023-05-23T02:27:15;99863.94;;;18.11;62.81
80798;BME280;70202;52.238;10.680;2023-05-23T02:28:16;99866.69;;;18.11;62.90
80798;BME280;70202;52.238;10.680;2023-05-23T02:29:16;99857.03;;;18.06;62.99
80798;BME280;70202;52.238;10.680;2023-05-23T02:30:17;99852.91;;;18.11;62.90
80798;BME280;70202;52.238;10.680;2023-05-23T02:31:17;99860.16;;;18.12;62.65
80798;BME280;70202;52.238;10.680;2023-05-23T02:32:18;99844.34;;;18.03;62.87
80798;BME280;70202;52.238;10.680;2023-05-23T02:33:18;99861.53;;;18.07;62.97
80798;BME280;70202;52.238;10.680;2023-05-23T02:34:18;99853.13;;;18.08;62.91
80798;BME280;70202;52.238;10.680;2023-05-23T02:35:19;99854.16;;;18.07;62.81
80798;BME280;70202;52.238;10.680;2023-05-23T02:36:20;99868.22;;;18.15;62.88
80798;BME280;70202;52.238;10.680;2023-05-23T02:37:20;99854.28;;;18.06;62.81
80798;BME280;70202;52.238;10.680;2023-05-23T02:38:21;99854.16;;;18.07;62.95
80798;BME280;70202;52.238;10.680;2023-05-23T02:39:21;99875.47;;;18.16;62.97
80798;BME280;70202;52.238;10.680;2023-05-23T02:40:21;99872.22;;;18.11;63.15
80798;BME280;70202;52.238;10.680;2023-05-23T02:41:22;99874.09;;;18.11;62.88
80798;BME280;70202;52.238;10.680;2023-05-23T02:42:22;99884.88;;;18.14;63.03
80798;BME280;70202;52.238;10.680;2023-05-23T02:43:22;99882.59;;;18.08;63.17
80798;BME280;70202;52.238;10.680;2023-05-23T02:44:23;99863.66;;;18.03;62.88
80798;BME280;70202;52.238;10.680;2023-05-23T02:45:23;99866.41;;;18.03;63.14
80798;BME280;70202;52.238;10.680;2023-05-23T02:46:24;99848.69;;;17.94;63.00
80798;BME280;70202;52.238;10.680;2023-05-23T02:47:25;99875.53;;;18.04;63.19
80798;BME280;70202;52.238;10.680;2023-05-23T02:48:25;99875.78;;;18.01;63.06
80798;BME280;70202;52.238;10.680;2023-05-23T02:49:25;99871.16;;;18.01;63.16
80798;BME280;70202;52.238;10.680;2023-05-23T02:50:26;99871.25;;;17.99;63.25
80798;BME280;70202;52.238;10.680;2023-05-23T02:51:26;99878.53;;;18.01;63.50
80798;BME280;70202;52.238;10.680;2023-05-23T02:52:26;99855.66;;;17.87;63.37
80798;BME280;70202;52.238;10.680;2023-05-23T02:53:27;99876.13;;;17.96;63.28
80798;BME280;70202;52.238;10.680;2023-05-23T02:54:27;99867.13;;;17.94;63.36
80798;BME280;70202;52.238;10.680;2023-05-23T02:55:27;99877.66;;;18.00;63.57
80798;BME280;70202;52.238;10.680;2023-05-23T02:56:28;99876.25;;;17.94;63.54
80798;BME280;70202;52.238;10.680;2023-05-23T02:57:28;99870.88;;;17.93;63.33
80798;BME280;70202;52.238;10.680;2023-05-23T02:58:29;99878.72;;;17.86;63.83
80798;BME280;70202;52.238;10.680;2023-05-23T02:59:29;99864.19;;;17.84;63.75
80798;BME280;70202;52.238;10.680;2023-05-23T03:00:30;99883.88;;;17.91;63.88
80798;BME280;70202;52.238;10.680;2023-05-23T03:01:31;99864.41;;;17.81;63.79
80798;BME280;70202;52.238;10.680;2023-05-23T03:02:31;99860.25;;;17.76;63.97
80798;BME280;70202;52.238;10.680;2023-05-23T03:03:32;99869.69;;;17.84;64.11
80798;BME280;70202;52.238;10.680;2023-05-23T03:04:32;99876.09;;;17.85;63.80
80798;BME280;70202;52.238;10.680;2023-05-23T03:05:33;99877.06;;;17.84;64.01
80798;BME280;70202;52.238;10.680;2023-05-23T03:06:33;99881.69;;;17.83;63.86
80798;BME280;70202;52.238;10.680;2023-05-23T03:07:35;99884.22;;;17.86;63.64
80798;BME280;70202;52.238;10.680;2023-05-23T03:08:36;99881.81;;;17.82;63.81
80798;BME280;70202;52.238;10.680;2023-05-23T03:09:36;99869.16;;;17.79;64.04
80798;BME280;70202;52.238;10.680;2023-05-23T03:10:36;99887.34;;;17.82;63.89
80798;BME280;70202;52.238;10.680;2023-05-23T03:11:37;99874.56;;;17.81;63.87
80798;BME280;70202;52.238;10.680;2023-05-23T03:12:37;99870.38;;;17.75;63.89
80798;BME280;70202;52.238;10.680;2023-05-23T03:13:37;99873.91;;;17.77;64.13
80798;BME280;70202;52.238;10.680;2023-05-23T03:14:38;99876.66;;;17.77;64.26
80798;BME280;70202;52.238;10.680;2023-05-23T03:15:38;99884.94;;;17.77;64.01
80798;BME280;70202;52.238;10.680;2023-05-23T03:16:39;99882.72;;;17.69;63.86
80798;BME280;70202;52.238;10.680;2023-05-23T03:17:39;99886.81;;;17.77;63.89
80798;BME280;70202;52.238;10.680;2023-05-23T03:18:39;99885.47;;;17.69;64.28
80798;BME280;70202;52.238;10.680;2023-05-23T03:19:41;99876.16;;;17.59;63.79
80798;BME280;70202;52.238;10.680;2023-05-23T03:20:41;99890.56;;;17.63;64.27
80798;BME280;70202;52.238;10.680;2023-05-23T03:21:41;99899.81;;;17.62;64.50
80798;BME280;70202;52.238;10.680;2023-05-23T03:22:43;99892.75;;;17.58;64.38
80798;BME280;70202;52.238;10.680;2023-05-23T03:23:44;99904.66;;;17.58;64.58
80798;BME280;70202;52.238;10.680;2023-05-23T03:24:45;99889.34;;;17.54;64.58
80798;BME280;70202;52.238;10.680;2023-05-23T03:25:45;99901.38;;;17.53;64.92
80798;BME280;70202;52.238;10.680;2023-05-23T03:26:45;99893.78;;;17.44;64.52
80798;BME280;70202;52.238;10.680;2023-05-23T03:27:46;99865.53;;;17.29;64.89
80798;BME280;70202;52.238;10.680;2023-05-23T03:28:47;99885.09;;;17.37;64.92
80798;BME280;70202;52.238;10.680;2023-05-23T03:29:48;99892.59;;;17.35;64.97
80798;BME280;70202;52.238;10.680;2023-05-23T03:30:48;99907.03;;;17.39;65.00
80798;BME280;70202;52.238;10.680;2023-05-23T03:31:48;99891.94;;;17.32;65.11
80798;BME280;70202;52.238;10.680;2023-05-23T03:32:49;99888.78;;;17.25;65.10
80798;BME280;70202;52.238;10.680;2023-05-23T03:33:49;99901.97;;;17.33;64.97
80798;BME280;70202;52.238;10.680;2023-05-23T03:34:50;99908.47;;;17.19;65.08
80798;BME280;70202;52.238;10.680;2023-05-23T03:35:50;99902.22;;;17.17;65.08
80798;BME280;70202;52.238;10.680;2023-05-23T03:36:52;99916.41;;;17.23;65.16
80798;BME280;70202;52.238;10.680;2023-05-23T03:37:52;99904.19;;;17.15;64.94
80798;BME280;70202;52.238;10.680;2023-05-23T03:38:53;99915.66;;;17.21;64.77
80798;BME280;70202;52.238;10.680;2023-05-23T03:39:53;99902.31;;;17.15;65.19
80798;BME280;70202;52.238;10.680;2023-05-23T03:40:53;99903.53;;;17.11;65.12
80798;BME280;70202;52.238;10.680;2023-05-23T03:41:54;99914.66;;;17.10;65.26
80798;BME280;70202;52.238;10.680;2023-05-23T03:43:02;99920.50;;;17.18;65.34
80798;BME280;70202;52.238;10.680;2023-05-23T03:44:03;99922.44;;;17.16;65.23
80798;BME280;70202;52.238;10.680;2023-05-23T03:45:04;99893.41;;;16.99;64.95
80798;BME280;70202;52.238;10.680;2023-05-23T03:46:05;99923.44;;;17.15;65.13
80798;BME280;70202;52.238;10.680;2023-05-23T03:47:06;99912.03;;;17.08;65.17
80798;BME280;70202;52.238;10.680;2023-05-23T03:48:06;99912.13;;;17.07;65.11
80798;BME280;70202;52.238;10.680;2023-05-23T03:49:06;99926.00;;;17.05;64.88
80798;BME280;70202;52.238;10.680;2023-05-23T03:50:07;99908.59;;;17.05;64.97
80798;BME280;70202;52.238;10.680;2023-05-23T03:51:07;99924.78;;;17.09;64.67
80798;BME280;70202;52.238;10.680;2023-05-23T03:52:08;99929.28;;;17.10;65.23
80798;BME280;70202;52.238;10.680;2023-05-23T03:53:08;99923.25;;;17.05;65.15
80798;BME280;70202;52.238;10.680;2023-05-23T03:54:09;99900.16;;;16.95;64.51
80798;BME280;70202;52.238;10.680;2023-05-23T03:55:09;99913.78;;;16.96;65.07
80798;BME280;70202;52.238;10.680;2023-05-23T03:56:10;99915.88;;;16.93;65.17
80798;BME280;70202;52.238;10.680;2023-05-23T03:57:10;99922.03;;;16.96;65.00
80798;BME280;70202;52.238;10.680;2023-05-23T03:58:11;99918.81;;;16.90;65.05
80798;BME280;70202;52.238;10.680;2023-05-23T03:59:11;99927.97;;;16.90;64.83
80798;BME280;70202;52.238;10.680;2023-05-23T04:00:12;99917.94;;;16.89;65.41
80798;BME280;70202;52.238;10.680;2023-05-23T04:01:12;99921.56;;;16.90;64.83
80798;BME280;70202;52.238;10.680;2023-05-23T04:02:13;99918.06;;;16.88;64.72
80798;BME280;70202;52.238;10.680;2023-05-23T04:03:15;99921.56;;;16.90;64.96
80798;BME280;70202;52.238;10.680;2023-05-23T04:04:16;99921.69;;;16.88;65.10
80798;BME280;70202;52.238;10.680;2023-05-23T04:05:17;99909.28;;;16.83;65.02
80798;BME280;70202;52.238;10.680;2023-05-23T04:06:18;99917.94;;;16.89;65.02
80798;BME280;70202;52.238;10.680;2023-05-23T04:07:19;99918.94;;;16.88;65.00
80798;BME280;70202;52.238;10.680;2023-05-23T04:08:19;99921.69;;;16.88;64.69
80798;BME280;70202;52.238;10.680;2023-05-23T04:09:21;99913.22;;;16.79;64.60
80798;BME280;70202;52.238;10.680;2023-05-23T04:10:21;99927.31;;;16.87;64.58
80798;BME280;70202;52.238;10.680;2023-05-23T04:11:22;99931.81;;;16.88;64.95
80798;BME280;70202;52.238;10.680;2023-05-23T04:12:22;99929.50;;;16.82;64.94
80798;BME280;70202;52.238;10.680;2023-05-23T04:13:23;99921.34;;;16.80;64.91
80798;BME280;70202;52.238;10.680;2023-05-23T04:14:25;99935.00;;;16.82;64.61
80798;BME280;70202;52.238;10.680;2023-05-23T04:15:26;99921.56;;;16.77;64.86
80798;BME280;70202;52.238;10.680;2023-05-23T04:16:27;99897.97;;;16.60;64.71
80798;BME280;70202;52.238;10.680;2023-05-23T04:17:27;99932.25;;;16.82;64.72
80798;BME280;70202;52.238;10.680;2023-05-23T04:18:30;99929.06;;;16.75;64.76
80798;BME280;70202;52.238;10.680;2023-05-23T04:19:32;99935.13;;;16.80;65.03
80798;BME280;70202;52.238;10.680;2023-05-23T04:20:32;99930.06;;;16.74;64.72
80798;BME280;70202;52.238;10.680;2023-05-23T04:21:33;99933.69;;;16.74;64.97
80798;BME280;70202;52.238;10.680;2023-05-23T04:22:33;99942.69;;;16.77;64.76
80798;BME280;70202;52.238;10.680;2023-05-23T04:23:34;99939.06;;;16.76;64.86
80798;BME280;70202;52.238;10.680;2023-05-23T04:24:34;99949.00;;;16.79;64.96
80798;BME280;70202;52.238;10.680;2023-05-23T04:25:34;99945.56;;;16.75;64.86
80798;BME280;70202;52.238;10.680;2023-05-23T04:26:35;99945.56;;;16.75;64.98
80798;BME280;70202;52.238;10.680;2023-05-23T04:27:35;99941.22;;;16.71;64.97
80798;BME280;70202;52.238;10.680;2023-05-23T04:28:39;99933.97;;;16.70;64.95
80798;BME280;70202;52.238;10.680;2023-05-23T04:29:39;99939.34;;;16.71;65.09
80798;BME280;70202;52.238;10.680;2023-05-23T04:30:40;99944.69;;;16.74;64.75
80798;BME280;70202;52.238;10.680;2023-05-23T04:31:41;99956.25;;;16.80;64.92
80798;BME280;70202;52.238;10.680;2023-05-23T04:32:45;99951.75;;;16.79;64.74
80798;BME280;70202;52.238;10.680;2023-05-23T04:33:45;99953.50;;;16.80;64.52
80798;BME280;70202;52.238;10.680;2023-05-23T04:34:46;99944.69;;;16.74;64.79
80798;BME280;70202;52.238;10.680;2023-05-23T04:35:46;99957.13;;;16.80;64.92
80798;BME280;70202;52.238;10.680;2023-05-23T04:36:48;99961.75;;;16.80;64.53
80798;BME280;70202;52.238;10.680;2023-05-23T04:37:48;99940.16;;;16.73;64.81
80798;BME280;70202;52.238;10.680;2023-05-23T04:38:49;99960.06;;;16.77;64.70
80798;BME280;70202;52.238;10.680;2023-05-23T04:39:50;99944.78;;;16.73;64.86
80798;BME280;70202;52.238;10.680;2023-05-23T04:40:50;99943.81;;;16.74;64.96
80798;BME280;70202;52.238;10.680;2023-05-23T04:41:53;99946.66;;;16.72;64.69
80798;BME280;70202;52.238;10.680;2023-05-23T04:42:54;99947.31;;;16.76;64.67
80798;BME280;70202;52.238;10.680;2023-05-23T04:43:54;99953.38;;;16.81;64.75
80798;BME280;70202;52.238;10.680;2023-05-23T04:44:57;99944.56;;;16.76;64.40
80798;BME280;70202;52.238;10.680;2023-05-23T04:46:00;99943.47;;;16.79;64.74
80798;BME280;70202;52.238;10.680;2023-05-23T04:47:01;99951.41;;;16.83;64.51
80798;BME280;70202;52.238;10.680;2023-05-23T04:48:02;99950.53;;;16.83;64.36
80798;BME280;70202;52.238;10.680;2023-05-23T04:49:02;99953.50;;;16.80;64.58
80798;BME280;70202;52.238;10.680;2023-05-23T04:50:03;99946.25;;;16.79;64.51
80798;BME280;70202;52.238;10.680;2023-05-23T04:51:04;99947.13;;;16.79;64.70
80798;BME280;70202;52.238;10.680;2023-05-23T04:52:07;99946.13;;;16.80;64.51
80798;BME280;70202;52.238;10.680;2023-05-23T04:53:08;99933.25;;;16.81;64.45
80798;BME280;70202;52.238;10.680;2023-05-23T04:54:08;99947.34;;;16.89;64.66
80798;BME280;70202;52.238;10.680;2023-05-23T04:55:09;99942.03;;;16.86;64.11
80798;BME280;70202;52.238;10.680;2023-05-23T04:56:09;99954.38;;;16.93;64.46
80798;BME280;70202;52.238;10.680;2023-05-23T04:57:10;99949.97;;;16.90;64.60
80798;BME280;70202;52.238;10.680;2023-05-23T04:58:11;99939.19;;;16.87;64.56
80798;BME280;70202;52.238;10.680;2023-05-23T04:59:12;99942.72;;;16.89;64.58
80798;BME280;70202;52.238;10.680;2023-05-23T05:00:12;99957.69;;;16.98;64.04
80798;BME280;70202;52.238;10.680;2023-05-23T05:01:13;99953.94;;;16.99;64.33
80798;BME280;70202;52.238;10.680;2023-05-23T05:02:14;99932.03;;;16.85;64.30
80798;BME280;70202;52.238;10.680;2023-05-23T05:03:15;99954.19;;;16.96;64.01
80798;BME280;70202;52.238;10.680;2023-05-23T05:04:15;99954.06;;;16.97;64.22
80798;BME280;70202;52.238;10.680;2023-05-23T05:05:16;99934.38;;;16.91;63.99
80798;BME280;70202;52.238;10.680;2023-05-23T05:06:17;99952.84;;;17.02;63.86
80798;BME280;70202;52.238;10.680;2023-05-23T05:07:17;99947.00;;;16.93;64.04
80798;BME280;70202;52.238;10.680;2023-05-23T05:08:18;99930.06;;;16.87;64.00
80798;BME280;70202;52.238;10.680;2023-05-23T05:09:22;99945.13;;;16.94;64.17
80798;BME280;70202;52.238;10.680;2023-05-23T05:10:23;99945.25;;;16.92;64.08
80798;BME280;70202;52.238;10.680;2023-05-23T05:11:25;99963.09;;;16.99;64.23
80798;BME280;70202;52.238;10.680;2023-05-23T05:12:26;99945.03;;;16.95;63.82
80798;BME280;70202;52.238;10.680;2023-05-23T05:13:26;99947.13;;;16.92;64.26
80798;BME280;70202;52.238;10.680;2023-05-23T05:14:27;99945.03;;;16.95;64.00
80798;BME280;70202;52.238;10.680;2023-05-23T05:15:27;99954.72;;;17.01;64.06
80798;BME280;70202;52.238;10.680;2023-05-23T05:16:27;99945.59;;;17.01;64.25
80798;BME280;70202;52.238;10.680;2023-05-23T05:17:28;99942.94;;;16.99;64.03
80798;BME280;70202;52.238;10.680;2023-05-23T05:18:29;99948.75;;;17.07;63.79
80798;BME280;70202;52.238;10.680;2023-05-23T05:19:30;99943.38;;;17.06;64.13
80798;BME280;70202;52.238;10.680;2023-05-23T05:20:30;99953.06;;;17.11;63.90
80798;BME280;70202;52.238;10.680;2023-05-23T05:21:31;99932.72;;;17.01;64.10
80798;BME280;70202;52.238;10.680;2023-05-23T05:22:31;99942.28;;;17.08;64.03
80798;BME280;70202;52.238;10.680;2023-05-23T05:23:31;99945.06;;;17.08;63.94
80798;BME280;70202;52.238;10.680;2023-05-23T05:24:32;99956.47;;;17.15;63.80
80798;BME280;70202;52.238;10.680;2023-05-23T05:25:33;99955.59;;;17.14;63.85
80798;BME280;70202;52.238;10.680;2023-05-23T05:26:35;99940.63;;;17.06;63.89
80798;BME280;70202;52.238;10.680;2023-05-23T05:27:36;99952.44;;;17.08;63.89